sensor_id;sensor_type;location;lat;lon;timestamp;temperature;humidity
6407;DHT22;3236;51.022;6.818;2022-08-26T00:01:14;21.40;99.90
6407;DHT22;3236;51.022;6.818;2022-08-26T00:03:43;21.30;99.90
6407;DHT22;3236;51.022;6.818;2022-08-26T00:06:12;21.20;99.90
6407;DHT22;3236;51.022;6.818;2022-08-26T00:08:42;21.20;99.90
6407;DHT22;3236;51.022;6.818;2022-08-26T00:11:11;21.20;99.90
6407;DHT22;3236;51.022;6.818;2022-08-26T00:16:07;21.50;99.90
6407;DHT22;3236;51.022;6.818;2022-08-26T00:21:03;21.00;99.90
6407;DHT22;3236;51.022;6.818;2022-08-26T00:23:30;21.50;99.90
6407;DHT22;3236;51.022;6.818;2022-08-26T00:26:00;22.00;99.90
6407;DHT22;3236;51.022;6.818;2022-08-26T00:28:27;21.40;99.90
6407;DHT22;3236;51.022;6.818;2022-08-26T00:30:54;21.60;99.90
6407;DHT22;3236;51.022;6.818;2022-08-26T00:33:23;21.90;99.90
6407;DHT22;3236;51.022;6.818;2022-08-26T00:35:50;21.50;99.90
6407;DHT22;3236;51.022;6.818;2022-08-26T00:38:18;21.50;99.90
6407;DHT22;3236;51.022;6.818;2022-08-26T00:40:48;21.50;99.90
6407;DHT22;3236;51.022;6.818;2022-08-26T00:43:16;21.20;99.90
6407;DHT22;3236;51.022;6.818;2022-08-26T00:45:46;21.80;99.90
6407;DHT22;3236;51.022;6.818;2022-08-26T00:48:20;21.40;99.90
6407;DHT22;3236;51.022;6.818;2022-08-26T00:50:53;21.60;99.90
6407;DHT22;3236;51.022;6.818;2022-08-26T00:53:23;21.80;99.90
6407;DHT22;3236;51.022;6.818;2022-08-26T00:55:54;21.30;99.90
6407;DHT22;3236;51.022;6.818;2022-08-26T00:58:32;22.40;99.90
6407;DHT22;3236;51.022;6.818;2022-08-26T01:03:28;21.20;99.90
6407;DHT22;3236;51.022;6.818;2022-08-26T01:05:58;23.70;99.90
6407;DHT22;3236;51.022;6.818;2022-08-26T01:08:28;21.50;99.90
6407;DHT22;3236;51.022;6.818;2022-08-26T01:13:24;21.50;99.90
6407;DHT22;3236;51.022;6.818;2022-08-26T01:15:54;21.30;99.90
6407;DHT22;3236;51.022;6.818;2022-08-26T01:18:22;21.00;99.90
6407;DHT22;3236;51.022;6.818;2022-08-26T01:20:56;21.40;99.90
6407;DHT22;3236;51.022;6.818;2022-08-26T01:23:29;20.90;99.90
6407;DHT22;3236;51.022;6.818;2022-08-26T01:26:01;21.00;99.90
6407;DHT22;3236;51.022;6.818;2022-08-26T01:28:31;21.00;99.90
6407;DHT22;3236;51.022;6.818;2022-08-26T01:30:59;21.00;99.90
6407;DHT22;3236;51.022;6.818;2022-08-26T01:33:31;21.00;99.90
6407;DHT22;3236;51.022;6.818;2022-08-26T01:38:30;21.20;99.90
6407;DHT22;3236;51.022;6.818;2022-08-26T01:40:58;20.80;99.90
6407;DHT22;3236;51.022;6.818;2022-08-26T01:43:26;20.50;99.90
6407;DHT22;3236;51.022;6.818;2022-08-26T01:45:54;20.70;99.90
6407;DHT22;3236;51.022;6.818;2022-08-26T01:48:24;20.30;99.90
6407;DHT22;3236;51.022;6.818;2022-08-26T01:50:54;20.70;99.90
6407;DHT22;3236;51.022;6.818;2022-08-26T01:53:25;20.70;99.90
6407;DHT22;3236;51.022;6.818;2022-08-26T01:55:56;20.60;99.90
6407;DHT22;3236;51.022;6.818;2022-08-26T01:58:28;20.50;99.90
6407;DHT22;3236;51.022;6.818;2022-08-26T02:03:24;20.90;99.90
6407;DHT22;3236;51.022;6.818;2022-08-26T02:05:54;20.50;99.90
6407;DHT22;3236;51.022;6.818;2022-08-26T02:08:25;20.70;99.90
6407;DHT22;3236;51.022;6.818;2022-08-26T02:11:10;18.80;99.90
6407;DHT22;3236;51.022;6.818;2022-08-26T02:13:40;20.40;99.90
6407;DHT22;3236;51.022;6.818;2022-08-26T02:16:09;20.40;99.90
6407;DHT22;3236;51.022;6.818;2022-08-26T02:18:39;20.30;99.90
6407;DHT22;3236;51.022;6.818;2022-08-26T02:21:08;19.90;99.90
6407;DHT22;3236;51.022;6.818;2022-08-26T02:23:36;20.50;99.90
6407;DHT22;3236;51.022;6.818;2022-08-26T02:26:07;19.60;99.90
6407;DHT22;3236;51.022;6.818;2022-08-26T02:28:39;20.10;99.90
6407;DHT22;3236;51.022;6.818;2022-08-26T02:31:07;20.60;99.90
6407;DHT22;3236;51.022;6.818;2022-08-26T02:36:03;20.00;99.90
6407;DHT22;3236;51.022;6.818;2022-08-26T02:43:25;20.20;99.90
6407;DHT22;3236;51.022;6.818;2022-08-26T02:45:53;19.70;99.90
6407;DHT22;3236;51.022;6.818;2022-08-26T02:48:20;20.20;99.90
6407;DHT22;3236;51.022;6.818;2022-08-26T02:50:48;19.50;99.90
6407;DHT22;3236;51.022;6.818;2022-08-26T02:53:16;19.90;99.90
6407;DHT22;3236;51.022;6.818;2022-08-26T02:55:43;19.70;99.90
6407;DHT22;3236;51.022;6.818;2022-08-26T02:58:14;20.40;99.90
6407;DHT22;3236;51.022;6.818;2022-08-26T03:00:41;19.50;99.90
6407;DHT22;3236;51.022;6.818;2022-08-26T03:03:09;19.60;99.90
6407;DHT22;3236;51.022;6.818;2022-08-26T03:05:36;19.80;99.90
6407;DHT22;3236;51.022;6.818;2022-08-26T03:08:03;19.60;99.90
6407;DHT22;3236;51.022;6.818;2022-08-26T03:10:30;20.50;99.90
6407;DHT22;3236;51.022;6.818;2022-08-26T03:20:23;20.30;99.90
6407;DHT22;3236;51.022;6.818;2022-08-26T03:25:19;20.80;99.90
6407;DHT22;3236;51.022;6.818;2022-08-26T03:30:15;20.50;99.90
6407;DHT22;3236;51.022;6.818;2022-08-26T03:32:59;21.00;99.90
6407;DHT22;3236;51.022;6.818;2022-08-26T03:35:28;21.00;99.90
6407;DHT22;3236;51.022;6.818;2022-08-26T03:37:55;20.40;99.90
6407;DHT22;3236;51.022;6.818;2022-08-26T03:42:52;21.00;99.90
6407;DHT22;3236;51.022;6.818;2022-08-26T03:47:47;20.20;99.90
6407;DHT22;3236;51.022;6.818;2022-08-26T03:50:16;20.60;99.90
6407;DHT22;3236;51.022;6.818;2022-08-26T03:52:45;20.50;99.90
6407;DHT22;3236;51.022;6.818;2022-08-26T03:55:16;20.60;99.90
6407;DHT22;3236;51.022;6.818;2022-08-26T03:57:44;20.30;99.90
6407;DHT22;3236;51.022;6.818;2022-08-26T04:00:13;20.70;99.90
6407;DHT22;3236;51.022;6.818;2022-08-26T04:02:44;20.30;99.90
6407;DHT22;3236;51.022;6.818;2022-08-26T04:05:14;20.40;99.90
6407;DHT22;3236;51.022;6.818;2022-08-26T04:07:42;20.70;99.90
6407;DHT22;3236;51.022;6.818;2022-08-26T04:10:12;20.40;99.90
6407;DHT22;3236;51.022;6.818;2022-08-26T04:12:42;21.10;99.90
6407;DHT22;3236;51.022;6.818;2022-08-26T04:15:12;20.50;99.90
6407;DHT22;3236;51.022;6.818;2022-08-26T04:20:08;20.50;99.90
6407;DHT22;3236;51.022;6.818;2022-08-26T04:22:38;21.00;99.90
6407;DHT22;3236;51.022;6.818;2022-08-26T04:25:07;20.40;99.90
6407;DHT22;3236;51.022;6.818;2022-08-26T04:27:36;20.50;99.90
6407;DHT22;3236;51.022;6.818;2022-08-26T04:30:04;21.10;99.90
6407;DHT22;3236;51.022;6.818;2022-08-26T04:32:31;21.00;99.90
6407;DHT22;3236;51.022;6.818;2022-08-26T04:39:52;20.20;99.90
6407;DHT22;3236;51.022;6.818;2022-08-26T04:42:20;21.00;99.90
6407;DHT22;3236;51.022;6.818;2022-08-26T04:44:48;20.50;99.90
6407;DHT22;3236;51.022;6.818;2022-08-26T04:47:15;21.00;99.90
6407;DHT22;3236;51.022;6.818;2022-08-26T04:52:09;20.40;99.90
6407;DHT22;3236;51.022;6.818;2022-08-26T04:54:37;20.70;99.90
6407;DHT22;3236;51.022;6.818;2022-08-26T04:59:31;20.70;99.90
6407;DHT22;3236;51.022;6.818;2022-08-26T05:02:00;20.70;99.90
6407;DHT22;3236;51.022;6.818;2022-08-26T05:04:28;20.80;99.90
6407;DHT22;3236;51.022;6.818;2022-08-26T05:06:55;20.80;99.90
6407;DHT22;3236;51.022;6.818;2022-08-26T05:09:25;20.80;99.90
6407;DHT22;3236;51.022;6.818;2022-08-26T05:11:52;20.70;99.90
6407;DHT22;3236;51.022;6.818;2022-08-26T05:14:20;21.10;99.90
6407;DHT22;3236;51.022;6.818;2022-08-26T05:16:47;20.50;99.90
6407;DHT22;3236;51.022;6.818;2022-08-26T05:19:16;20.10;99.90
6407;DHT22;3236;51.022;6.818;2022-08-26T05:21:43;20.80;99.90
6407;DHT22;3236;51.022;6.818;2022-08-26T05:24:11;20.80;99.90
6407;DHT22;3236;51.022;6.818;2022-08-26T05:26:38;21.30;99.90
6407;DHT22;3236;51.022;6.818;2022-08-26T05:29:05;21.30;99.90
6407;DHT22;3236;51.022;6.818;2022-08-26T05:31:33;20.80;99.90
6407;DHT22;3236;51.022;6.818;2022-08-26T05:36:32;21.20;99.90
6407;DHT22;3236;51.022;6.818;2022-08-26T05:39:00;21.10;99.90
6407;DHT22;3236;51.022;6.818;2022-08-26T05:41:29;20.90;99.90
6407;DHT22;3236;51.022;6.818;2022-08-26T05:43:59;21.10;99.90
6407;DHT22;3236;51.022;6.818;2022-08-26T05:46:27;21.10;99.90
6407;DHT22;3236;51.022;6.818;2022-08-26T05:48:55;20.80;99.90
6407;DHT22;3236;51.022;6.818;2022-08-26T05:53:52;21.10;99.90
6407;DHT22;3236;51.022;6.818;2022-08-26T05:56:19;21.40;99.90
6407;DHT22;3236;51.022;6.818;2022-08-26T06:01:18;21.20;99.90
6407;DHT22;3236;51.022;6.818;2022-08-26T06:03:48;21.10;99.90
6407;DHT22;3236;51.022;6.818;2022-08-26T06:06:18;21.30;99.90
6407;DHT22;3236;51.022;6.818;2022-08-26T06:08:46;21.10;99.90
6407;DHT22;3236;51.022;6.818;2022-08-26T06:11:16;21.10;99.90
6407;DHT22;3236;51.022;6.818;2022-08-26T06:13:44;21.30;99.90
6407;DHT22;3236;51.022;6.818;2022-08-26T06:16:13;21.40;99.90
6407;DHT22;3236;51.022;6.818;2022-08-26T06:18:43;21.40;99.90
6407;DHT22;3236;51.022;6.818;2022-08-26T06:23:39;21.20;99.90
6407;DHT22;3236;51.022;6.818;2022-08-26T06:26:25;21.20;99.90
6407;DHT22;3236;51.022;6.818;2022-08-26T06:28:53;21.30;99.90
6407;DHT22;3236;51.022;6.818;2022-08-26T06:31:20;21.60;99.90
6407;DHT22;3236;51.022;6.818;2022-08-26T06:33:48;21.30;99.90
6407;DHT22;3236;51.022;6.818;2022-08-26T06:36:17;21.60;99.90
6407;DHT22;3236;51.022;6.818;2022-08-26T06:41:14;21.70;99.90
6407;DHT22;3236;51.022;6.818;2022-08-26T06:46:11;21.40;99.90
6407;DHT22;3236;51.022;6.818;2022-08-26T06:48:39;21.30;99.90
6407;DHT22;3236;51.022;6.818;2022-08-26T06:53:36;22.00;99.90
6407;DHT22;3236;51.022;6.818;2022-08-26T06:56:05;21.50;99.90
6407;DHT22;3236;51.022;6.818;2022-08-26T06:58:35;21.60;99.90
6407;DHT22;3236;51.022;6.818;2022-08-26T07:01:14;21.90;99.90
6407;DHT22;3236;51.022;6.818;2022-08-26T07:06:08;21.50;99.90
6407;DHT22;3236;51.022;6.818;2022-08-26T07:08:36;21.40;99.90
6407;DHT22;3236;51.022;6.818;2022-08-26T07:11:04;21.10;99.90
6407;DHT22;3236;51.022;6.818;2022-08-26T07:13:31;21.30;99.90
6407;DHT22;3236;51.022;6.818;2022-08-26T07:16:04;22.10;99.90
6407;DHT22;3236;51.022;6.818;2022-08-26T07:18:32;21.30;99.90
6407;DHT22;3236;51.022;6.818;2022-08-26T07:21:01;21.90;99.90
6407;DHT22;3236;51.022;6.818;2022-08-26T07:23:28;22.00;99.90
6407;DHT22;3236;51.022;6.818;2022-08-26T07:25:55;22.00;99.90
6407;DHT22;3236;51.022;6.818;2022-08-26T07:28:23;21.80;99.90
6407;DHT22;3236;51.022;6.818;2022-08-26T07:30:50;22.10;99.90
6407;DHT22;3236;51.022;6.818;2022-08-26T07:33:18;22.10;99.90
6407;DHT22;3236;51.022;6.818;2022-08-26T07:35:45;21.80;99.90
6407;DHT22;3236;51.022;6.818;2022-08-26T07:38:12;21.70;99.90
6407;DHT22;3236;51.022;6.818;2022-08-26T07:40:39;22.00;99.90
6407;DHT22;3236;51.022;6.818;2022-08-26T07:43:07;21.50;99.90
6407;DHT22;3236;51.022;6.818;2022-08-26T07:48:03;21.70;99.90
6407;DHT22;3236;51.022;6.818;2022-08-26T07:50:31;22.30;99.90
6407;DHT22;3236;51.022;6.818;2022-08-26T07:52:59;21.90;99.90
6407;DHT22;3236;51.022;6.818;2022-08-26T07:55:27;22.10;99.90
6407;DHT22;3236;51.022;6.818;2022-08-26T08:00:26;24.00;99.90
6407;DHT22;3236;51.022;6.818;2022-08-26T08:05:25;21.90;99.90
6407;DHT22;3236;51.022;6.818;2022-08-26T08:07:56;21.50;99.90
6407;DHT22;3236;51.022;6.818;2022-08-26T08:10:24;21.80;99.90
6407;DHT22;3236;51.022;6.818;2022-08-26T08:15:21;21.70;99.90
6407;DHT22;3236;51.022;6.818;2022-08-26T08:17:49;21.70;99.90
6407;DHT22;3236;51.022;6.818;2022-08-26T08:20:16;21.30;99.90
6407;DHT22;3236;51.022;6.818;2022-08-26T08:22:43;22.00;99.90
6407;DHT22;3236;51.022;6.818;2022-08-26T08:25:12;21.50;99.90
6407;DHT22;3236;51.022;6.818;2022-08-26T08:27:41;21.00;99.90
6407;DHT22;3236;51.022;6.818;2022-08-26T08:30:11;21.90;99.90
6407;DHT22;3236;51.022;6.818;2022-08-26T08:32:38;21.50;99.90
6407;DHT22;3236;51.022;6.818;2022-08-26T08:35:07;21.20;99.90
6407;DHT22;3236;51.022;6.818;2022-08-26T08:40:05;19.50;99.90
6407;DHT22;3236;51.022;6.818;2022-08-26T08:42:40;21.70;99.90
6407;DHT22;3236;51.022;6.818;2022-08-26T08:45:12;21.90;99.90
6407;DHT22;3236;51.022;6.818;2022-08-26T08:47:43;21.90;99.90
6407;DHT22;3236;51.022;6.818;2022-08-26T08:50:20;21.30;99.90
6407;DHT22;3236;51.022;6.818;2022-08-26T08:53:03;21.90;99.90
6407;DHT22;3236;51.022;6.818;2022-08-26T08:55:40;22.20;99.90
6407;DHT22;3236;51.022;6.818;2022-08-26T08:58:14;21.70;99.90
6407;DHT22;3236;51.022;6.818;2022-08-26T09:00:48;21.90;99.90
6407;DHT22;3236;51.022;6.818;2022-08-26T09:03:24;22.20;99.90
6407;DHT22;3236;51.022;6.818;2022-08-26T09:05:56;22.10;99.90
6407;DHT22;3236;51.022;6.818;2022-08-26T09:08:30;22.50;99.90
6407;DHT22;3236;51.022;6.818;2022-08-26T09:11:00;22.10;99.90
6407;DHT22;3236;51.022;6.818;2022-08-26T09:13:29;22.10;99.90
6407;DHT22;3236;51.022;6.818;2022-08-26T09:16:02;22.50;99.90
6407;DHT22;3236;51.022;6.818;2022-08-26T09:18:46;21.90;99.90
6407;DHT22;3236;51.022;6.818;2022-08-26T09:21:16;22.20;99.90
6407;DHT22;3236;51.022;6.818;2022-08-26T09:23:44;22.20;99.90
6407;DHT22;3236;51.022;6.818;2022-08-26T09:26:15;22.20;99.90
6407;DHT22;3236;51.022;6.818;2022-08-26T09:28:46;22.10;99.90
6407;DHT22;3236;51.022;6.818;2022-08-26T09:31:18;22.20;99.90
6407;DHT22;3236;51.022;6.818;2022-08-26T09:33:47;22.30;99.90
6407;DHT22;3236;51.022;6.818;2022-08-26T09:36:18;22.10;99.90
6407;DHT22;3236;51.022;6.818;2022-08-26T09:38:48;21.90;99.90
6407;DHT22;3236;51.022;6.818;2022-08-26T09:41:22;22.10;99.90
6407;DHT22;3236;51.022;6.818;2022-08-26T09:44:16;22.40;99.90
6407;DHT22;3236;51.022;6.818;2022-08-26T09:46:51;22.30;99.90
6407;DHT22;3236;51.022;6.818;2022-08-26T09:49:26;22.40;99.90
6407;DHT22;3236;51.022;6.818;2022-08-26T09:54:33;22.40;99.90
6407;DHT22;3236;51.022;6.818;2022-08-26T09:57:26;22.30;99.90
6407;DHT22;3236;51.022;6.818;2022-08-26T09:59:54;23.00;99.90
6407;DHT22;3236;51.022;6.818;2022-08-26T10:02:37;22.50;99.90
6407;DHT22;3236;51.022;6.818;2022-08-26T10:05:13;22.50;99.90
6407;DHT22;3236;51.022;6.818;2022-08-26T10:07:46;22.60;99.90
6407;DHT22;3236;51.022;6.818;2022-08-26T10:10:18;22.70;99.90
6407;DHT22;3236;51.022;6.818;2022-08-26T10:15:18;22.70;99.90
6407;DHT22;3236;51.022;6.818;2022-08-26T10:17:50;22.70;99.90
6407;DHT22;3236;51.022;6.818;2022-08-26T10:20:22;24.40;99.90
6407;DHT22;3236;51.022;6.818;2022-08-26T10:22:58;22.80;99.90
6407;DHT22;3236;51.022;6.818;2022-08-26T10:25:30;23.00;99.90
6407;DHT22;3236;51.022;6.818;2022-08-26T10:30:39;22.70;99.90
6407;DHT22;3236;51.022;6.818;2022-08-26T10:33:12;22.70;99.90
6407;DHT22;3236;51.022;6.818;2022-08-26T10:35:45;22.90;99.90
6407;DHT22;3236;51.022;6.818;2022-08-26T10:38:20;23.10;99.90
6407;DHT22;3236;51.022;6.818;2022-08-26T10:40:53;23.10;99.90
6407;DHT22;3236;51.022;6.818;2022-08-26T10:43:24;23.30;99.90
6407;DHT22;3236;51.022;6.818;2022-08-26T10:46:00;23.30;99.90
6407;DHT22;3236;51.022;6.818;2022-08-26T10:48:34;23.70;99.90
6407;DHT22;3236;51.022;6.818;2022-08-26T10:53:43;24.10;99.90
6407;DHT22;3236;51.022;6.818;2022-08-26T10:56:24;24.30;99.90
6407;DHT22;3236;51.022;6.818;2022-08-26T10:58:59;24.20;99.90
6407;DHT22;3236;51.022;6.818;2022-08-26T11:01:33;24.60;99.90
6407;DHT22;3236;51.022;6.818;2022-08-26T11:04:25;24.40;99.90
6407;DHT22;3236;51.022;6.818;2022-08-26T11:09:52;24.80;99.90
6407;DHT22;3236;51.022;6.818;2022-08-26T11:12:54;25.20;99.90
6407;DHT22;3236;51.022;6.818;2022-08-26T11:21:41;25.20;99.90
6407;DHT22;3236;51.022;6.818;2022-08-26T11:24:39;25.40;99.90
6407;DHT22;3236;51.022;6.818;2022-08-26T11:29:54;24.80;99.90
6407;DHT22;3236;51.022;6.818;2022-08-26T11:34:55;24.70;99.90
6407;DHT22;3236;51.022;6.818;2022-08-26T11:37:29;24.50;99.90
6407;DHT22;3236;51.022;6.818;2022-08-26T11:39:57;24.50;99.90
6407;DHT22;3236;51.022;6.818;2022-08-26T11:42:31;24.30;99.90
6407;DHT22;3236;51.022;6.818;2022-08-26T11:45:02;24.30;99.90
6407;DHT22;3236;51.022;6.818;2022-08-26T11:47:39;23.80;99.90
6407;DHT22;3236;51.022;6.818;2022-08-26T11:50:11;24.00;99.90
6407;DHT22;3236;51.022;6.818;2022-08-26T11:52:50;24.20;99.90
6407;DHT22;3236;51.022;6.818;2022-08-26T11:55:21;23.80;99.90
6407;DHT22;3236;51.022;6.818;2022-08-26T11:57:51;23.90;99.90
6407;DHT22;3236;51.022;6.818;2022-08-26T12:00:21;23.90;99.90
6407;DHT22;3236;51.022;6.818;2022-08-26T12:02:49;23.60;99.90
6407;DHT22;3236;51.022;6.818;2022-08-26T12:05:26;23.70;99.90
6407;DHT22;3236;51.022;6.818;2022-08-26T12:07:55;23.80;99.90
6407;DHT22;3236;51.022;6.818;2022-08-26T12:10:28;23.90;99.90
6407;DHT22;3236;51.022;6.818;2022-08-26T12:12:58;23.80;99.90
6407;DHT22;3236;51.022;6.818;2022-08-26T12:15:29;24.00;99.90
6407;DHT22;3236;51.022;6.818;2022-08-26T12:20:31;23.70;99.90
6407;DHT22;3236;51.022;6.818;2022-08-26T12:23:23;24.20;99.90
6407;DHT22;3236;51.022;6.818;2022-08-26T12:26:01;24.60;99.90
6407;DHT22;3236;51.022;6.818;2022-08-26T12:28:31;24.10;99.90
6407;DHT22;3236;51.022;6.818;2022-08-26T12:31:00;24.20;99.90
6407;DHT22;3236;51.022;6.818;2022-08-26T12:33:28;23.80;99.90
6407;DHT22;3236;51.022;6.818;2022-08-26T12:35:58;23.80;99.90
6407;DHT22;3236;51.022;6.818;2022-08-26T12:38:30;23.50;99.90
6407;DHT22;3236;51.022;6.818;2022-08-26T12:40:59;23.80;99.90
6407;DHT22;3236;51.022;6.818;2022-08-26T12:43:45;23.40;99.90
6407;DHT22;3236;51.022;6.818;2022-08-26T12:46:15;24.10;99.90
6407;DHT22;3236;51.022;6.818;2022-08-26T12:48:47;23.40;99.90
6407;DHT22;3236;51.022;6.818;2022-08-26T12:51:27;23.90;99.90
6407;DHT22;3236;51.022;6.818;2022-08-26T12:53:55;23.50;99.90
6407;DHT22;3236;51.022;6.818;2022-08-26T12:56:30;23.70;99.90
6407;DHT22;3236;51.022;6.818;2022-08-26T12:59:06;23.50;99.90
6407;DHT22;3236;51.022;6.818;2022-08-26T13:01:40;23.90;99.90
6407;DHT22;3236;51.022;6.818;2022-08-26T13:04:36;24.40;99.90
6407;DHT22;3236;51.022;6.818;2022-08-26T13:07:20;24.00;99.90
6407;DHT22;3236;51.022;6.818;2022-08-26T13:09:48;23.50;99.90
6407;DHT22;3236;51.022;6.818;2022-08-26T13:12:24;23.30;99.90
6407;DHT22;3236;51.022;6.818;2022-08-26T13:14:52;23.40;99.90
6407;DHT22;3236;51.022;6.818;2022-08-26T13:17:19;24.40;99.90
6407;DHT22;3236;51.022;6.818;2022-08-26T13:19:54;24.10;99.90
6407;DHT22;3236;51.022;6.818;2022-08-26T13:22:23;23.50;99.90
6407;DHT22;3236;51.022;6.818;2022-08-26T13:24:52;23.20;99.90
6407;DHT22;3236;51.022;6.818;2022-08-26T13:27:24;23.10;99.90
6407;DHT22;3236;51.022;6.818;2022-08-26T13:29:52;23.20;99.90
6407;DHT22;3236;51.022;6.818;2022-08-26T13:32:21;23.20;99.90
6407;DHT22;3236;51.022;6.818;2022-08-26T13:34:50;23.40;99.90
6407;DHT22;3236;51.022;6.818;2022-08-26T13:37:18;23.90;99.90
6407;DHT22;3236;51.022;6.818;2022-08-26T13:39:48;23.60;99.90
6407;DHT22;3236;51.022;6.818;2022-08-26T13:42:15;23.20;99.90
6407;DHT22;3236;51.022;6.818;2022-08-26T13:44:43;23.00;99.90
6407;DHT22;3236;51.022;6.818;2022-08-26T13:47:14;23.30;99.90
6407;DHT22;3236;51.022;6.818;2022-08-26T13:49:44;23.40;99.90
6407;DHT22;3236;51.022;6.818;2022-08-26T13:52:12;23.00;99.90
6407;DHT22;3236;51.022;6.818;2022-08-26T13:57:15;23.50;99.90
6407;DHT22;3236;51.022;6.818;2022-08-26T13:59:42;23.10;99.90
6407;DHT22;3236;51.022;6.818;2022-08-26T14:02:09;23.30;99.90
6407;DHT22;3236;51.022;6.818;2022-08-26T14:07:04;23.60;99.90
6407;DHT22;3236;51.022;6.818;2022-08-26T14:09:31;23.10;99.90
6407;DHT22;3236;51.022;6.818;2022-08-26T14:16:55;22.80;99.90
6407;DHT22;3236;51.022;6.818;2022-08-26T14:21:50;23.00;99.90
6407;DHT22;3236;51.022;6.818;2022-08-26T14:24:17;23.10;99.90
6407;DHT22;3236;51.022;6.818;2022-08-26T14:26:47;22.40;99.90
6407;DHT22;3236;51.022;6.818;2022-08-26T14:29:14;23.30;99.90
6407;DHT22;3236;51.022;6.818;2022-08-26T14:31:43;22.80;99.90
6407;DHT22;3236;51.022;6.818;2022-08-26T14:34:11;23.00;99.90
6407;DHT22;3236;51.022;6.818;2022-08-26T14:36:39;24.50;99.90
6407;DHT22;3236;51.022;6.818;2022-08-26T14:39:08;25.40;99.90
6407;DHT22;3236;51.022;6.818;2022-08-26T14:41:39;25.80;99.90
6407;DHT22;3236;51.022;6.818;2022-08-26T14:44:10;26.20;99.90
6407;DHT22;3236;51.022;6.818;2022-08-26T14:46:43;27.50;99.90
6407;DHT22;3236;51.022;6.818;2022-08-26T14:49:11;28.00;99.90
6407;DHT22;3236;51.022;6.818;2022-08-26T14:51:39;27.40;99.90
6407;DHT22;3236;51.022;6.818;2022-08-26T14:54:07;27.00;99.90
6407;DHT22;3236;51.022;6.818;2022-08-26T14:56:44;27.00;99.90
6407;DHT22;3236;51.022;6.818;2022-08-26T14:59:13;26.60;99.90
6407;DHT22;3236;51.022;6.818;2022-08-26T15:01:40;26.50;99.90
6407;DHT22;3236;51.022;6.818;2022-08-26T15:04:11;26.10;99.90
6407;DHT22;3236;51.022;6.818;2022-08-26T15:09:07;26.40;99.90
6407;DHT22;3236;51.022;6.818;2022-08-26T15:11:34;26.00;99.90
6407;DHT22;3236;51.022;6.818;2022-08-26T15:14:03;26.00;99.90
6407;DHT22;3236;51.022;6.818;2022-08-26T15:16:32;26.60;99.90
6407;DHT22;3236;51.022;6.818;2022-08-26T15:19:02;26.90;99.90
6407;DHT22;3236;51.022;6.818;2022-08-26T15:21:33;26.50;99.90
6407;DHT22;3236;51.022;6.818;2022-08-26T15:24:04;25.30;99.90
6407;DHT22;3236;51.022;6.818;2022-08-26T15:26:34;25.20;99.90
6407;DHT22;3236;51.022;6.818;2022-08-26T15:29:06;24.30;99.90
6407;DHT22;3236;51.022;6.818;2022-08-26T15:31:34;24.30;99.90
6407;DHT22;3236;51.022;6.818;2022-08-26T15:34:03;24.60;99.90
6407;DHT22;3236;51.022;6.818;2022-08-26T15:36:35;24.20;99.90
6407;DHT22;3236;51.022;6.818;2022-08-26T15:39:04;24.40;99.90
6407;DHT22;3236;51.022;6.818;2022-08-26T15:41:33;24.00;99.90
6407;DHT22;3236;51.022;6.818;2022-08-26T15:44:03;23.90;99.90
6407;DHT22;3236;51.022;6.818;2022-08-26T15:46:36;24.10;99.90
6407;DHT22;3236;51.022;6.818;2022-08-26T15:49:04;23.40;99.90
6407;DHT22;3236;51.022;6.818;2022-08-26T15:51:46;23.80;99.90
6407;DHT22;3236;51.022;6.818;2022-08-26T15:54:16;24.10;99.90
6407;DHT22;3236;51.022;6.818;2022-08-26T15:56:44;23.50;99.90
6407;DHT22;3236;51.022;6.818;2022-08-26T15:59:15;22.90;99.90
6407;DHT22;3236;51.022;6.818;2022-08-26T16:01:42;23.80;99.90
6407;DHT22;3236;51.022;6.818;2022-08-26T16:04:10;23.40;99.90
6407;DHT22;3236;51.022;6.818;2022-08-26T16:06:40;23.50;99.90
6407;DHT22;3236;51.022;6.818;2022-08-26T16:09:08;23.30;99.90
6407;DHT22;3236;51.022;6.818;2022-08-26T16:11:37;23.80;99.90
6407;DHT22;3236;51.022;6.818;2022-08-26T16:14:04;23.50;99.90
6407;DHT22;3236;51.022;6.818;2022-08-26T16:16:32;23.80;99.90
6407;DHT22;3236;51.022;6.818;2022-08-26T16:18:59;23.50;99.90
6407;DHT22;3236;51.022;6.818;2022-08-26T16:21:27;23.80;99.90
6407;DHT22;3236;51.022;6.818;2022-08-26T16:23:56;23.30;99.90
6407;DHT22;3236;51.022;6.818;2022-08-26T16:26:25;22.90;99.90
6407;DHT22;3236;51.022;6.818;2022-08-26T16:29:05;22.90;99.90
6407;DHT22;3236;51.022;6.818;2022-08-26T16:31:33;22.70;99.90
6407;DHT22;3236;51.022;6.818;2022-08-26T16:34:01;23.00;99.90
6407;DHT22;3236;51.022;6.818;2022-08-26T16:36:28;22.40;99.90
6407;DHT22;3236;51.022;6.818;2022-08-26T16:38:58;22.80;99.90
6407;DHT22;3236;51.022;6.818;2022-08-26T16:41:27;23.10;99.90
6407;DHT22;3236;51.022;6.818;2022-08-26T16:43:54;22.90;99.90
6407;DHT22;3236;51.022;6.818;2022-08-26T16:46:23;22.60;99.90
6407;DHT22;3236;51.022;6.818;2022-08-26T16:48:51;22.70;99.90
6407;DHT22;3236;51.022;6.818;2022-08-26T16:51:22;22.70;99.90
6407;DHT22;3236;51.022;6.818;2022-08-26T16:53:52;22.50;99.90
6407;DHT22;3236;51.022;6.818;2022-08-26T16:56:22;23.00;99.90
6407;DHT22;3236;51.022;6.818;2022-08-26T16:58:53;22.20;99.90
6407;DHT22;3236;51.022;6.818;2022-08-26T17:01:24;22.30;99.90
6407;DHT22;3236;51.022;6.818;2022-08-26T17:03:56;22.50;99.90
6407;DHT22;3236;51.022;6.818;2022-08-26T17:06:25;21.80;99.90
6407;DHT22;3236;51.022;6.818;2022-08-26T17:08:56;21.70;99.90
6407;DHT22;3236;51.022;6.818;2022-08-26T17:11:24;21.60;99.90
6407;DHT22;3236;51.022;6.818;2022-08-26T17:13:53;22.10;99.90
6407;DHT22;3236;51.022;6.818;2022-08-26T17:16:21;21.90;99.90
6407;DHT22;3236;51.022;6.818;2022-08-26T17:18:58;21.60;99.90
6407;DHT22;3236;51.022;6.818;2022-08-26T17:21:28;21.90;99.90
6407;DHT22;3236;51.022;6.818;2022-08-26T17:23:55;22.00;99.90
6407;DHT22;3236;51.022;6.818;2022-08-26T17:28:51;21.90;99.90
6407;DHT22;3236;51.022;6.818;2022-08-26T17:31:19;21.90;99.90
6407;DHT22;3236;51.022;6.818;2022-08-26T17:33:55;21.50;99.90
6407;DHT22;3236;51.022;6.818;2022-08-26T17:36:23;22.00;99.90
6407;DHT22;3236;51.022;6.818;2022-08-26T17:38:51;21.80;99.90
6407;DHT22;3236;51.022;6.818;2022-08-26T17:41:18;21.30;99.90
6407;DHT22;3236;51.022;6.818;2022-08-26T17:46:14;21.80;99.90
6407;DHT22;3236;51.022;6.818;2022-08-26T17:48:41;21.60;99.90
6407;DHT22;3236;51.022;6.818;2022-08-26T17:51:13;21.80;99.90
6407;DHT22;3236;51.022;6.818;2022-08-26T18:01:05;21.60;99.90
6407;DHT22;3236;51.022;6.818;2022-08-26T18:03:34;21.10;99.90
6407;DHT22;3236;51.022;6.818;2022-08-26T18:06:01;22.00;99.90
6407;DHT22;3236;51.022;6.818;2022-08-26T18:11:00;21.60;99.90
6407;DHT22;3236;51.022;6.818;2022-08-26T18:13:28;21.40;99.90
6407;DHT22;3236;51.022;6.818;2022-08-26T18:15:55;21.80;99.90
6407;DHT22;3236;51.022;6.818;2022-08-26T18:18:22;21.00;99.90
6407;DHT22;3236;51.022;6.818;2022-08-26T18:20:51;21.40;99.90
6407;DHT22;3236;51.022;6.818;2022-08-26T18:23:18;21.40;99.90
6407;DHT22;3236;51.022;6.818;2022-08-26T18:25:45;21.40;99.90
6407;DHT22;3236;51.022;6.818;2022-08-26T18:28:15;21.30;99.90
6407;DHT22;3236;51.022;6.818;2022-08-26T18:30:43;21.30;99.90
6407;DHT22;3236;51.022;6.818;2022-08-26T18:33:12;20.90;99.90
6407;DHT22;3236;51.022;6.818;2022-08-26T18:35:41;21.20;99.90
6407;DHT22;3236;51.022;6.818;2022-08-26T18:38:10;20.80;99.90
6407;DHT22;3236;51.022;6.818;2022-08-26T18:40:38;21.50;99.90
6407;DHT22;3236;51.022;6.818;2022-08-26T18:43:06;21.60;99.90